Time;durP1;ratioP1;P1;durP2;ratioP2;P2;SDS_P1;SDS_P2;PMS_P1;PMS_P2;Temp;Humidity;BMP_temperature;BMP_pressure;BME280_temperature;BME280_humidity;BME280_pressure;Samples;Min_cycle;Max_cycle;Signal;HPM_P1;HPM_P2
2022/12/14 00:02:26;;;;;;;;;;;-1.50;94.70;;;;;;5057245;28;20003;-76
2022/12/14 00:04:52;;;;;;;;;;;-1.60;94.70;;;;;;5055897;28;20439;-75
2022/12/14 00:07:20;;;;;;;;;;;-1.50;94.70;;;;;;5055430;28;19975;-75
2022/12/14 00:09:47;;;;;;;;;;;-1.50;94.60;;;;;;5056463;28;19975;-75
2022/12/14 00:12:13;;;;;;;;;;;-1.50;94.60;;;;;;5053196;28;19995;-75
2022/12/14 00:14:40;;;;;;;;;;;-1.50;94.50;;;;;;5059571;28;19998;-77
2022/12/14 00:17:07;;;;;;;;;;;-1.50;94.50;;;;;;5058059;28;19995;-77
2022/12/14 00:19:33;;;;;;;;;;;-1.50;94.60;;;;;;5057225;28;20447;-75
2022/12/14 00:22:00;;;;;;;;;;;-1.50;94.60;;;;;;5059158;28;20394;-75
2022/12/14 00:24:28;;;;;;;;;;;-1.50;94.60;;;;;;5066728;28;19979;-73
2022/12/14 00:26:54;;;;;;;;;;;-1.50;94.60;;;;;;5060425;28;19982;-75
2022/12/14 00:29:21;;;;;;;;;;;-1.50;94.60;;;;;;5064136;28;19975;-75
2022/12/14 00:31:49;;;;;;;;;;;-1.50;94.50;;;;;;5062386;28;19995;-75
2022/12/14 00:34:16;;;;;;;;;;;-1.40;94.50;;;;;;5065380;28;20084;-74
2022/12/14 00:36:43;;;;;;;;;;;-1.40;94.50;;;;;;5064972;28;19976;-73
2022/12/14 00:39:09;;;;;;;;;;;-1.40;94.60;;;;;;5059521;28;19986;-75
2022/12/14 00:41:37;;;;;;;;;;;-1.40;94.60;;;;;;5064976;28;20006;-75
2022/12/14 00:44:04;;;;;;;;;;;-1.40;94.60;;;;;;5058267;28;19976;-75
2022/12/14 00:46:31;;;;;;;;;;;-1.40;94.50;;;;;;5062108;28;19991;-75
2022/12/14 00:48:57;;;;;;;;;;;-1.40;94.50;;;;;;5061426;28;19976;-77
2022/12/14 00:51:24;;;;;;;;;;;-1.40;94.50;;;;;;5061479;28;20116;-73
2022/12/14 00:53:50;;;;;;;;;;;-1.40;94.50;;;;;;5056402;28;20082;-75
2022/12/14 00:56:17;;;;;;;;;;;-1.40;94.50;;;;;;5064003;28;20324;-75
2022/12/14 00:58:49;;;;;;;;;;;-1.40;94.50;;;;;;5057237;28;19991;-76
2022/12/14 01:01:16;;;;;;;;;;;-1.40;94.40;;;;;;5062976;28;20006;-77
2022/12/14 01:03:42;;;;;;;;;;;-1.40;94.40;;;;;;5059951;28;20025;-75
2022/12/14 01:06:13;;;;;;;;;;;-1.40;94.40;;;;;;5060303;28;19982;-76
2022/12/14 01:08:39;;;;;;;;;;;-1.40;94.50;;;;;;5059817;28;19979;-76
2022/12/14 01:11:06;;;;;;;;;;;-1.40;94.40;;;;;;5059937;28;19995;-76
2022/12/14 01:13:34;;;;;;;;;;;-1.40;94.40;;;;;;5065700;28;20446;-75
2022/12/14 01:16:05;;;;;;;;;;;-1.40;94.40;;;;;;5056415;28;19991;-75
2022/12/14 01:18:33;;;;;;;;;;;-1.30;94.50;;;;;;5058631;28;19995;-77
2022/12/14 01:21:07;;;;;;;;;;;-1.40;94.40;;;;;;5059622;28;19998;-75
2022/12/14 01:23:33;;;;;;;;;;;-1.30;94.50;;;;;;5064775;28;19986;-76
2022/12/14 01:26:00;;;;;;;;;;;-1.30;94.40;;;;;;5060623;28;19982;-76
2022/12/14 01:28:26;;;;;;;;;;;-1.40;94.40;;;;;;5057953;28;19990;-74
2022/12/14 01:30:53;;;;;;;;;;;-1.30;94.40;;;;;;5059371;28;19996;-76
2022/12/14 01:33:21;;;;;;;;;;;-1.30;94.40;;;;;;5064347;28;20286;-75
2022/12/14 01:35:47;;;;;;;;;;;-1.30;94.40;;;;;;5061134;28;19996;-73
2022/12/14 01:38:14;;;;;;;;;;;-1.30;94.40;;;;;;5060936;28;19980;-76
2022/12/14 01:40:40;;;;;;;;;;;-1.30;94.40;;;;;;5061044;28;19995;-76
2022/12/14 01:43:11;;;;;;;;;;;-1.30;94.30;;;;;;5062720;28;20009;-76
2022/12/14 01:45:37;;;;;;;;;;;-1.30;94.30;;;;;;5053673;28;20477;-75
2022/12/14 01:48:04;;;;;;;;;;;-1.30;94.30;;;;;;5058939;28;20010;-75
2022/12/14 01:50:34;;;;;;;;;;;-1.30;94.30;;;;;;5058236;28;19995;-75
2022/12/14 01:53:02;;;;;;;;;;;-1.30;94.40;;;;;;5059762;28;19975;-76
2022/12/14 01:55:31;;;;;;;;;;;-1.30;94.40;;;;;;5055438;28;20006;-73
2022/12/14 01:58:00;;;;;;;;;;;-1.30;94.70;;;;;;5058476;28;19975;-76
2022/12/14 02:00:27;;;;;;;;;;;-1.30;94.40;;;;;;5059023;28;20010;-77
2022/12/14 02:02:55;;;;;;;;;;;-1.30;94.40;;;;;;5062286;28;19975;-75
2022/12/14 02:05:23;;;;;;;;;;;-1.30;94.40;;;;;;5061885;28;19979;-74
2022/12/14 02:07:52;;;;;;;;;;;-1.30;94.40;;;;;;5061929;28;19979;-75
2022/12/14 02:10:20;;;;;;;;;;;-1.30;94.40;;;;;;5055943;28;19991;-75
2022/12/14 02:12:48;;;;;;;;;;;-1.20;94.40;;;;;;5058948;28;19979;-75
2022/12/14 02:15:15;;;;;;;;;;;-1.30;94.40;;;;;;5055537;28;20766;-75
2022/12/14 02:17:42;;;;;;;;;;;-1.30;94.40;;;;;;5057195;28;19992;-75
2022/12/14 02:20:09;;;;;;;;;;;-1.20;94.50;;;;;;5057106;28;19975;-74
2022/12/14 02:22:59;;;;;;;;;;;-1.20;94.50;;;;;;5056115;28;19983;-75
2022/12/14 02:25:39;;;;;;;;;;;-1.20;94.40;;;;;;5058554;28;19986;-74
2022/12/14 02:28:20;;;;;;;;;;;-1.20;94.40;;;;;;5061378;28;19971;-75
2022/12/14 02:30:54;;;;;;;;;;;-1.30;94.40;;;;;;5053048;28;20003;-75
2022/12/14 02:33:25;;;;;;;;;;;-1.20;94.40;;;;;;5054638;28;20443;-76
2022/12/14 02:35:55;;;;;;;;;;;1.00;95.10;;;;;;5056077;28;19999;-75
2022/12/14 02:38:28;;;;;;;;;;;-1.20;94.40;;;;;;5055205;28;19982;-76
2022/12/14 02:41:00;;;;;;;;;;;-1.20;94.40;;;;;;5060738;28;19992;-76
2022/12/14 02:43:30;;;;;;;;;;;-1.20;94.40;;;;;;5062154;28;19984;-76
2022/12/14 02:46:02;;;;;;;;;;;-1.20;94.40;;;;;;5050216;28;19992;-74
2022/12/14 02:48:32;;;;;;;;;;;-1.20;94.40;;;;;;5060143;28;19975;-73
2022/12/14 02:51:02;;;;;;;;;;;-1.20;94.40;;;;;;5055253;28;19998;-72
2022/12/14 02:53:31;;;;;;;;;;;-1.20;94.50;;;;;;5055838;28;19975;-73
2022/12/14 02:56:00;;;;;;;;;;;-1.20;94.40;;;;;;5057616;28;19992;-74
2022/12/14 02:58:27;;;;;;;;;;;-1.20;94.40;;;;;;5058143;28;19987;-75
2022/12/14 03:00:55;;;;;;;;;;;-1.20;94.40;;;;;;5065205;28;19999;-74
2022/12/14 03:03:23;;;;;;;;;;;-1.20;94.40;;;;;;5074031;28;19986;-75
2022/12/14 03:05:56;;;;;;;;;;;-1.10;94.50;;;;;;5078363;28;20374;-74
2022/12/14 03:08:24;;;;;;;;;;;-1.10;94.40;;;;;;5079753;28;19979;-75
2022/12/14 03:10:52;;;;;;;;;;;-1.10;94.40;;;;;;5075903;28;20042;-77
2022/12/14 03:13:22;;;;;;;;;;;-1.10;94.40;;;;;;5078522;28;19986;-75
2022/12/14 03:15:53;;;;;;;;;;;-1.20;94.40;;;;;;5074844;28;19994;-72
2022/12/14 03:18:21;;;;;;;;;;;-1.20;94.40;;;;;;5074746;28;19979;-76
2022/12/14 03:20:50;;;;;;;;;;;-1.10;94.50;;;;;;5078099;28;19998;-75
2022/12/14 03:23:19;;;;;;;;;;;-1.10;94.40;;;;;;5079212;28;19990;-76
2022/12/14 03:25:47;;;;;;;;;;;-1.10;94.50;;;;;;5077898;28;19979;-71
2022/12/14 03:28:16;;;;;;;;;;;-1.10;94.50;;;;;;5078777;28;20552;-75
2022/12/14 03:30:43;;;;;;;;;;;-1.10;94.50;;;;;;5077813;28;20010;-75
2022/12/14 03:33:13;;;;;;;;;;;-1.10;94.50;;;;;;5075792;28;19982;-75
2022/12/14 03:35:42;;;;;;;;;;;-1.10;94.50;;;;;;5076741;28;19995;-72
2022/12/14 03:38:13;;;;;;;;;;;-1.10;94.50;;;;;;5076767;28;19986;-75
2022/12/14 03:40:42;;;;;;;;;;;-1.10;94.50;;;;;;5078368;28;20370;-73
2022/12/14 03:43:13;;;;;;;;;;;-1.10;94.50;;;;;;5081993;28;19975;-74
2022/12/14 03:45:44;;;;;;;;;;;-1.10;94.50;;;;;;5080277;28;20010;-75
2022/12/14 03:48:14;;;;;;;;;;;-1.10;94.50;;;;;;5085434;28;19986;-75
2022/12/14 03:50:44;;;;;;;;;;;-1.10;94.50;;;;;;5084299;28;19995;-75
2022/12/14 03:53:15;;;;;;;;;;;-1.10;94.50;;;;;;5085699;28;19979;-75
2022/12/14 03:55:46;;;;;;;;;;;-1.00;94.50;;;;;;5083024;28;19991;-75
2022/12/14 03:58:21;;;;;;;;;;;-1.00;94.50;;;;;;5084676;28;19994;-74
2022/12/14 04:00:51;;;;;;;;;;;-1.00;94.50;;;;;;5082673;28;20006;-75
2022/12/14 04:03:21;;;;;;;;;;;-1.10;94.50;;;;;;5086960;28;19978;-75
2022/12/14 04:05:50;;;;;;;;;;;-1.10;94.50;;;;;;5082134;28;19983;-71
2022/12/14 04:08:22;;;;;;;;;;;-1.00;94.50;;;;;;5083311;28;19986;-75
2022/12/14 04:19:11;;;;;;;;;;;-1.00;94.50;;;;;;5084066;28;20017;-74
2022/12/14 04:21:41;;;;;;;;;;;-1.00;94.50;;;;;;5081093;28;20056;-75
2022/12/14 04:27:01;;;;;;;;;;;-1.00;94.50;;;;;;5082837;28;19982;-76
2022/12/14 04:32:16;;;;;;;;;;;-1.00;94.60;;;;;;5066164;28;20036;-75
2022/12/14 04:34:45;;;;;;;;;;;-1.00;94.50;;;;;;5061039;28;21303;-75
2022/12/14 04:37:15;;;;;;;;;;;-1.00;94.90;;;;;;5062387;28;19980;-75
2022/12/14 04:39:47;;;;;;;;;;;-1.00;94.50;;;;;;5065398;28;20582;-75
2022/12/14 04:42:14;;;;;;;;;;;-0.90;94.60;;;;;;5064748;28;19993;-75
2022/12/14 04:44:42;;;;;;;;;;;-0.90;94.60;;;;;;5071997;28;19983;-76
2022/12/14 04:47:10;;;;;;;;;;;-0.90;94.60;;;;;;5064601;28;19991;-75
2022/12/14 04:49:39;;;;;;;;;;;-1.00;94.60;;;;;;5066277;28;19979;-74
2022/12/14 04:52:07;;;;;;;;;;;-1.00;94.60;;;;;;5071688;28;19991;-75
2022/12/14 04:54:37;;;;;;;;;;;-1.00;94.60;;;;;;5067741;28;19984;-76
2022/12/14 04:57:08;;;;;;;;;;;-1.00;94.60;;;;;;5067049;28;19976;-75
2022/12/14 04:59:35;;;;;;;;;;;-0.90;94.60;;;;;;5071529;28;20070;-74
2022/12/14 05:02:08;;;;;;;;;;;-0.90;94.60;;;;;;5059440;28;19991;-74
2022/12/14 05:04:41;;;;;;;;;;;-0.90;94.70;;;;;;5070171;28;19976;-75
2022/12/14 05:07:13;;;;;;;;;;;-0.90;94.70;;;;;;5064794;28;19990;-75
2022/12/14 05:09:41;;;;;;;;;;;-0.90;94.70;;;;;;5060124;28;19975;-75
2022/12/14 05:12:12;;;;;;;;;;;-0.90;94.70;;;;;;5059222;28;20039;-75
2022/12/14 05:14:42;;;;;;;;;;;-0.90;94.70;;;;;;5068961;28;19979;-75
2022/12/14 05:17:08;;;;;;;;;;;-0.90;94.60;;;;;;5062808;28;19995;-75
2022/12/14 05:19:35;;;;;;;;;;;-0.90;94.70;;;;;;5062907;28;20837;-75
2022/12/14 05:22:04;;;;;;;;;;;-0.90;94.60;;;;;;5064849;28;19998;-75
2022/12/14 05:24:31;;;;;;;;;;;-0.90;94.60;;;;;;5061479;28;19979;-75
2022/12/14 05:26:57;;;;;;;;;;;-0.90;94.60;;;;;;5059113;28;19979;-76
2022/12/14 05:29:25;;;;;;;;;;;-0.90;94.60;;;;;;5065867;28;19979;-74
2022/12/14 05:31:52;;;;;;;;;;;-0.90;94.60;;;;;;5078160;28;19995;-75
2022/12/14 05:34:19;;;;;;;;;;;-0.90;94.60;;;;;;5082719;28;19986;-76
2022/12/14 05:36:45;;;;;;;;;;;-0.90;94.60;;;;;;5081882;28;20078;-74
2022/12/14 05:39:12;;;;;;;;;;;-0.80;94.60;;;;;;5081775;28;19975;-75
2022/12/14 05:41:38;;;;;;;;;;;-0.90;94.60;;;;;;5080884;28;19987;-75
2022/12/14 05:44:05;;;;;;;;;;;-0.90;94.70;;;;;;5089921;28;19980;-76
2022/12/14 05:46:33;;;;;;;;;;;-0.80;94.70;;;;;;5082977;28;19991;-76
2022/12/14 05:49:00;;;;;;;;;;;-0.80;94.70;;;;;;5082221;28;19979;-76
2022/12/14 05:51:26;;;;;;;;;;;-0.80;94.70;;;;;;5081146;28;19994;-76
2022/12/14 05:53:53;;;;;;;;;;;-0.80;94.70;;;;;;5082978;28;19978;-75
2022/12/14 05:56:19;;;;;;;;;;;-0.80;95.00;;;;;;5079920;28;19983;-75
2022/12/14 05:58:48;;;;;;;;;;;-0.80;94.70;;;;;;5082253;28;19982;-76
2022/12/14 06:01:15;;;;;;;;;;;-0.80;94.70;;;;;;5085587;28;19990;-75
2022/12/14 06:03:43;;;;;;;;;;;-0.80;94.70;;;;;;5089593;28;19975;-76
2022/12/14 06:06:10;;;;;;;;;;;-0.80;94.80;;;;;;5088147;28;19982;-75
2022/12/14 06:08:38;;;;;;;;;;;-0.80;94.80;;;;;;5080978;28;19975;-76
2022/12/14 06:11:07;;;;;;;;;;;-0.80;94.80;;;;;;5078858;28;20021;-75
2022/12/14 06:13:34;;;;;;;;;;;-0.80;94.80;;;;;;5078397;28;19975;-76
2022/12/14 06:16:07;;;;;;;;;;;-0.80;94.80;;;;;;5078887;28;20003;-76
2022/12/14 06:18:34;;;;;;;;;;;-0.80;94.80;;;;;;5081697;28;19971;-76
2022/12/14 06:21:02;;;;;;;;;;;-0.80;94.90;;;;;;5076938;28;19990;-76
2022/12/14 06:23:28;;;;;;;;;;;-0.80;94.80;;;;;;5086473;28;20362;-76
2022/12/14 06:25:55;;;;;;;;;;;-0.80;94.90;;;;;;5085377;28;20428;-76
2022/12/14 06:28:22;;;;;;;;;;;-0.80;94.90;;;;;;5080052;28;19975;-76
2022/12/14 06:30:48;;;;;;;;;;;-0.80;94.90;;;;;;5077744;28;19995;-75
2022/12/14 06:33:15;;;;;;;;;;;-0.80;95.20;;;;;;5078673;28;19978;-73
2022/12/14 06:35:42;;;;;;;;;;;-0.80;94.90;;;;;;5085320;28;20060;-76
2022/12/14 06:38:10;;;;;;;;;;;-0.70;94.90;;;;;;5081708;28;19982;-74
2022/12/14 06:40:37;;;;;;;;;;;-0.80;94.90;;;;;;5076268;28;20350;-75
2022/12/14 06:43:03;;;;;;;;;;;-0.70;94.90;;;;;;5082924;28;20351;-75
2022/12/14 06:45:30;;;;;;;;;;;-0.80;94.90;;;;;;5080040;28;19976;-76
2022/12/14 06:47:57;;;;;;;;;;;-0.80;94.90;;;;;;5076987;28;20450;-74
2022/12/14 06:50:24;;;;;;;;;;;-0.70;95.00;;;;;;5080359;28;19998;-75
2022/12/14 06:52:50;;;;;;;;;;;-0.70;94.90;;;;;;5083740;28;19975;-77
2022/12/14 06:55:18;;;;;;;;;;;-0.70;94.90;;;;;;5091626;28;19978;-75
2022/12/14 06:57:45;;;;;;;;;;;-0.70;94.80;;;;;;5086707;28;19975;-77
2022/12/14 07:00:12;;;;;;;;;;;-0.70;94.80;;;;;;5081540;28;20690;-76
2022/12/14 07:02:38;;;;;;;;;;;-0.70;94.80;;;;;;5083212;28;20759;-77
2022/12/14 07:05:05;;;;;;;;;;;-0.70;94.70;;;;;;5078550;28;19986;-75
2022/12/14 07:07:32;;;;;;;;;;;-0.70;94.70;;;;;;5080375;28;20067;-77
2022/12/14 07:09:58;;;;;;;;;;;-0.70;94.70;;;;;;5074192;28;19979;-77
2022/12/14 07:12:26;;;;;;;;;;;-1.60;94.50;;;;;;5078955;28;19975;-76
2022/12/14 07:14:53;;;;;;;;;;;-0.70;94.70;;;;;;5079548;28;20554;-77
2022/12/14 07:17:20;;;;;;;;;;;-0.60;94.70;;;;;;5079397;28;21053;-77
2022/12/14 07:19:46;;;;;;;;;;;-0.70;94.60;;;;;;5078646;28;20246;-76
2022/12/14 07:22:13;;;;;;;;;;;-0.60;94.60;;;;;;5085488;28;19991;-77
2022/12/14 07:24:40;;;;;;;;;;;-0.60;94.60;;;;;;5083646;28;19983;-77
2022/12/14 07:27:07;;;;;;;;;;;-0.70;94.60;;;;;;5072513;28;19983;-77
2022/12/14 07:29:35;;;;;;;;;;;-0.70;94.60;;;;;;5071952;28;19975;-76
2022/12/14 07:32:02;;;;;;;;;;;-0.60;94.60;;;;;;5070771;28;20465;-76
2022/12/14 07:34:28;;;;;;;;;;;-0.60;94.60;;;;;;5075967;28;19979;-76
2022/12/14 07:36:55;;;;;;;;;;;-0.60;94.60;;;;;;5082399;28;19991;-76
2022/12/14 07:39:22;;;;;;;;;;;-0.60;94.60;;;;;;5083685;28;20585;-76
2022/12/14 07:41:49;;;;;;;;;;;-0.60;94.60;;;;;;5084232;28;20796;-76
2022/12/14 07:44:16;;;;;;;;;;;-0.60;94.60;;;;;;5082428;28;19979;-76
2022/12/14 07:46:44;;;;;;;;;;;-0.60;94.60;;;;;;5079021;28;20002;-76
2022/12/14 07:49:11;;;;;;;;;;;-0.60;94.60;;;;;;5082617;28;20012;-76
2022/12/14 07:51:39;;;;;;;;;;;-0.60;94.60;;;;;;5075966;28;20474;-76
2022/12/14 07:54:07;;;;;;;;;;;-0.60;94.60;;;;;;5078511;28;20020;-76
2022/12/14 07:56:35;;;;;;;;;;;-0.60;94.60;;;;;;5081205;28;19993;-75
2022/12/14 07:59:03;;;;;;;;;;;-0.60;94.60;;;;;;5073579;28;19981;-75
2022/12/14 08:01:31;;;;;;;;;;;-0.60;94.90;;;;;;5067448;28;20466;-75
2022/12/14 08:03:59;;;;;;;;;;;-0.60;94.60;;;;;;5077601;28;20450;-76
2022/12/14 08:06:27;;;;;;;;;;;-0.50;94.60;;;;;;5070988;28;20060;-75
2022/12/14 08:08:54;;;;;;;;;;;-0.50;94.60;;;;;;5074476;28;19986;-75
2022/12/14 08:11:22;;;;;;;;;;;-0.60;94.50;;;;;;5068496;28;20355;-76
2022/12/14 08:13:52;;;;;;;;;;;-0.60;94.50;;;;;;5074596;28;20069;-75
2022/12/14 08:16:19;;;;;;;;;;;-0.60;94.60;;;;;;5077630;28;20001;-75
2022/12/14 08:18:46;;;;;;;;;;;-0.60;94.60;;;;;;5075734;28;19980;-75
2022/12/14 08:21:14;;;;;;;;;;;-0.60;94.60;;;;;;5077235;28;19991;-76
2022/12/14 08:23:41;;;;;;;;;;;-0.60;94.60;;;;;;5081596;28;19979;-75
2022/12/14 08:26:07;;;;;;;;;;;-0.60;94.60;;;;;;5073694;28;20578;-73
2022/12/14 08:28:35;;;;;;;;;;;-0.50;95.00;;;;;;5081918;28;19979;-74
2022/12/14 08:31:03;;;;;;;;;;;-0.60;94.60;;;;;;5085861;28;20001;-74
2022/12/14 08:33:30;;;;;;;;;;;-0.60;94.60;;;;;;5083307;28;20628;-74
2022/12/14 08:35:56;;;;;;;;;;;-0.50;94.70;;;;;;5084142;28;19983;-75
2022/12/14 08:38:25;;;;;;;;;;;-0.50;94.70;;;;;;5077672;28;19979;-75
2022/12/14 08:40:51;;;;;;;;;;;-0.50;94.70;;;;;;5075166;28;20003;-75
2022/12/14 08:43:18;;;;;;;;;;;-0.50;94.70;;;;;;5084346;28;19975;-76
2022/12/14 08:45:44;;;;;;;;;;;-0.60;94.70;;;;;;5081593;28;19995;-75
2022/12/14 08:48:11;;;;;;;;;;;-0.50;94.90;;;;;;5079582;28;19982;-74
2022/12/14 08:50:37;;;;;;;;;;;-0.50;94.80;;;;;;5076864;28;19991;-72
2022/12/14 08:53:04;;;;;;;;;;;-0.50;94.90;;;;;;5081621;28;20368;-71
2022/12/14 08:55:32;;;;;;;;;;;-0.50;94.90;;;;;;5080554;28;19979;-74
2022/12/14 08:57:58;;;;;;;;;;;-0.50;94.90;;;;;;5084516;28;19991;-75
2022/12/14 09:00:25;;;;;;;;;;;-0.20;95.20;;;;;;5078990;28;20003;-75
2022/12/14 09:02:52;;;;;;;;;;;-0.50;95.00;;;;;;5079288;28;19975;-75
2022/12/14 09:05:19;;;;;;;;;;;-0.50;95.00;;;;;;5079460;28;19982;-74
2022/12/14 09:07:46;;;;;;;;;;;-0.40;95.10;;;;;;5077104;28;19974;-76
2022/12/14 09:10:13;;;;;;;;;;;-0.40;95.10;;;;;;5078444;28;19972;-76
2022/12/14 09:12:41;;;;;;;;;;;-0.40;95.10;;;;;;5080428;28;19975;-75
2022/12/14 09:15:08;;;;;;;;;;;-0.40;95.10;;;;;;5078086;28;19975;-74
2022/12/14 09:17:34;;;;;;;;;;;-0.40;95.10;;;;;;5078337;28;20485;-76
2022/12/14 09:20:02;;;;;;;;;;;-0.40;95.10;;;;;;5082821;28;19997;-76
2022/12/14 09:22:28;;;;;;;;;;;-0.40;95.20;;;;;;5082301;28;19985;-75
2022/12/14 09:24:55;;;;;;;;;;;-0.40;95.10;;;;;;5074408;28;19982;-75
2022/12/14 09:33:30;;;;;;;;;;;-0.40;95.10;;;;;;5028489;28;20018;-79
2022/12/14 09:35:59;;;;;;;;;;;-0.40;95.10;;;;;;5039233;28;19983;-78
2022/12/14 09:38:25;;;;;;;;;;;-0.40;95.10;;;;;;5036095;28;19979;-79
2022/12/14 09:40:54;;;;;;;;;;;-0.40;95.10;;;;;;5036098;28;19976;-80
2022/12/14 09:43:28;;;;;;;;;;;-0.40;95.10;;;;;;5033149;28;20410;-79
2022/12/14 09:45:58;;;;;;;;;;;-0.40;95.10;;;;;;5035417;28;20003;-79
2022/12/14 09:48:24;;;;;;;;;;;-0.40;95.20;;;;;;5036044;28;19980;-76
2022/12/14 09:50:53;;;;;;;;;;;-0.40;95.20;;;;;;5036108;28;19976;-79
2022/12/14 09:53:20;;;;;;;;;;;-0.40;95.20;;;;;;5038613;28;20003;-78
2022/12/14 09:55:48;;;;;;;;;;;-0.30;95.20;;;;;;5027120;28;20023;-79
2022/12/14 09:58:16;;;;;;;;;;;-0.40;95.10;;;;;;5027796;28;20011;-79
2022/12/14 10:00:43;;;;;;;;;;;-0.30;95.20;;;;;;5034022;28;19986;-78
2022/12/14 10:03:18;;;;;;;;;;;-0.30;95.20;;;;;;5039589;28;20442;-78
2022/12/14 10:05:51;;;;;;;;;;;-0.40;95.20;;;;;;5038025;28;20973;-79
2022/12/14 10:08:23;;;;;;;;;;;-0.40;95.20;;;;;;5033067;28;20010;-78
2022/12/14 10:10:55;;;;;;;;;;;-0.30;95.20;;;;;;5034248;28;19976;-78
2022/12/14 10:13:27;;;;;;;;;;;-0.30;95.20;;;;;;5037835;28;20424;-79
2022/12/14 10:15:57;;;;;;;;;;;-0.30;95.30;;;;;;5037978;28;20005;-78
2022/12/14 10:18:41;;;;;;;;;;;-0.30;95.30;;;;;;5037618;28;20001;-78
2022/12/14 10:21:11;;;;;;;;;;;-0.30;95.30;;;;;;5036055;28;19975;-78
2022/12/14 10:23:41;;;;;;;;;;;-0.30;95.30;;;;;;5026479;28;20456;-78
2022/12/14 10:26:13;;;;;;;;;;;-0.30;95.30;;;;;;5027538;28;20139;-78
2022/12/14 10:28:41;;;;;;;;;;;-0.30;95.30;;;;;;5026455;28;19992;-78
2022/12/14 10:31:11;;;;;;;;;;;-0.30;95.30;;;;;;5018891;28;20002;-78
2022/12/14 10:33:41;;;;;;;;;;;-0.30;95.30;;;;;;5028107;28;19991;-78
2022/12/14 10:36:17;;;;;;;;;;;-0.30;95.30;;;;;;5037360;28;19986;-79
2022/12/14 10:38:48;;;;;;;;;;;-0.20;95.30;;;;;;5038492;28;19990;-78
2022/12/14 10:41:19;;;;;;;;;;;-0.30;95.30;;;;;;5037085;28;19975;-79
2022/12/14 10:43:51;;;;;;;;;;;-0.30;95.30;;;;;;5035278;28;20582;-78
2022/12/14 10:46:24;;;;;;;;;;;-0.20;95.30;;;;;;5034109;28;21338;-78
2022/12/14 10:48:54;;;;;;;;;;;-0.20;95.30;;;;;;5040504;28;19980;-78
2022/12/14 10:51:25;;;;;;;;;;;-0.20;95.30;;;;;;5035606;28;19987;-78
2022/12/14 10:53:54;;;;;;;;;;;-0.20;95.20;;;;;;5040454;28;19991;-78
2022/12/14 10:56:24;;;;;;;;;;;-0.20;95.20;;;;;;5037189;28;19980;-78
2022/12/14 10:59:09;;;;;;;;;;;-0.20;95.30;;;;;;5037770;28;19980;-78
2022/12/14 11:01:36;;;;;;;;;;;-0.20;95.30;;;;;;5032313;28;19992;-78
2022/12/14 11:04:02;;;;;;;;;;;-0.20;95.30;;;;;;5035274;28;19991;-77
2022/12/14 11:06:29;;;;;;;;;;;-0.20;95.30;;;;;;5037511;28;19990;-78
2022/12/14 11:08:57;;;;;;;;;;;-0.20;95.30;;;;;;5037817;28;19976;-78
2022/12/14 11:11:25;;;;;;;;;;;-0.10;95.30;;;;;;5037822;28;20038;-78
2022/12/14 11:13:52;;;;;;;;;;;-0.10;95.30;;;;;;5038684;28;19996;-78
2022/12/14 11:16:24;;;;;;;;;;;-0.10;95.40;;;;;;5036603;28;19992;-78
2022/12/14 11:18:56;;;;;;;;;;;-0.10;95.50;;;;;;5040915;28;20014;-78
2022/12/14 11:21:28;;;;;;;;;;;-0.10;95.50;;;;;;5039370;28;19984;-78
2022/12/14 11:23:54;;;;;;;;;;;-0.10;95.50;;;;;;5034833;28;20034;-78
2022/12/14 11:26:26;;;;;;;;;;;-0.10;95.50;;;;;;5037403;28;19982;-79
2022/12/14 11:28:54;;;;;;;;;;;-0.10;95.50;;;;;;5032809;28;20011;-78
2022/12/14 11:31:22;;;;;;;;;;;-0.10;95.50;;;;;;5033144;28;20659;-78
2022/12/14 11:33:49;;;;;;;;;;;-0.10;95.60;;;;;;5032243;28;20003;-79
2022/12/14 11:36:23;;;;;;;;;;;-0.10;95.60;;;;;;5039963;28;20448;-78
2022/12/14 11:38:54;;;;;;;;;;;-0.10;95.60;;;;;;5037409;28;19992;-78
2022/12/14 11:41:20;;;;;;;;;;;-0.10;95.60;;;;;;5035466;28;19976;-78
2022/12/14 11:44:00;;;;;;;;;;;-0.10;95.70;;;;;;5033174;28;19992;-78
2022/12/14 11:46:40;;;;;;;;;;;-0.10;95.70;;;;;;5039113;28;19995;-78
2022/12/14 11:49:18;;;;;;;;;;;-0.10;95.70;;;;;;5034905;28;19975;-78
2022/12/14 11:51:53;;;;;;;;;;;-0.10;95.70;;;;;;5038078;28;20443;-78
2022/12/14 11:54:20;;;;;;;;;;;0.00;95.70;;;;;;5035490;28;20454;-78
2022/12/14 11:56:49;;;;;;;;;;;-0.10;95.70;;;;;;5040033;28;19987;-77
2022/12/14 11:59:17;;;;;;;;;;;-0.10;95.70;;;;;;5039242;28;19976;-78
2022/12/14 12:01:43;;;;;;;;;;;-0.10;95.70;;;;;;5033296;28;19995;-79
2022/12/14 12:04:12;;;;;;;;;;;-0.10;95.70;;;;;;5038499;28;19988;-78
2022/12/14 12:06:39;;;;;;;;;;;0.00;95.70;;;;;;5037887;28;19991;-78
2022/12/14 12:09:11;;;;;;;;;;;-0.10;95.70;;;;;;5036132;28;20105;-77
2022/12/14 12:11:44;;;;;;;;;;;0.00;95.70;;;;;;5041412;28;19987;-78
2022/12/14 12:14:17;;;;;;;;;;;0.00;95.70;;;;;;5042930;28;19996;-78
2022/12/14 12:16:45;;;;;;;;;;;0.00;95.70;;;;;;5037569;28;20446;-77
2022/12/14 12:19:24;;;;;;;;;;;0.00;95.80;;;;;;5039779;28;19972;-77
2022/12/14 12:21:51;;;;;;;;;;;0.00;95.70;;;;;;5038925;28;19983;-77
2022/12/14 12:24:21;;;;;;;;;;;0.00;95.70;;;;;;5038338;28;19991;-78
2022/12/14 12:26:49;;;;;;;;;;;0.00;95.70;;;;;;5040628;28;19980;-77
2022/12/14 12:29:18;;;;;;;;;;;0.00;95.70;;;;;;5043637;28;19982;-78
2022/12/14 12:31:50;;;;;;;;;;;0.00;95.70;;;;;;5040931;28;19996;-77
2022/12/14 12:34:20;;;;;;;;;;;0.00;95.70;;;;;;5040261;28;20146;-77
2022/12/14 12:36:47;;;;;;;;;;;0.00;95.70;;;;;;5044286;28;19976;-77
2022/12/14 12:39:15;;;;;;;;;;;0.00;95.70;;;;;;5038669;28;20030;-77
2022/12/14 12:41:46;;;;;;;;;;;0.00;95.60;;;;;;5039891;28;19980;-77
2022/12/14 12:44:35;;;;;;;;;;;0.00;95.70;;;;;;5045601;28;19992;-77
2022/12/14 12:47:06;;;;;;;;;;;0.00;95.70;;;;;;5039702;28;19991;-77
2022/12/14 12:49:33;;;;;;;;;;;0.00;95.70;;;;;;5041700;28;19980;-77
2022/12/14 12:52:01;;;;;;;;;;;0.00;95.70;;;;;;5043467;28;19980;-77
2022/12/14 12:54:31;;;;;;;;;;;0.00;95.70;;;;;;5038420;28;19995;-76
2022/12/14 12:56:58;;;;;;;;;;;0.00;95.70;;;;;;5036145;28;20022;-78
2022/12/14 12:59:31;;;;;;;;;;;0.00;95.70;;;;;;5038664;28;19980;-77
2022/12/14 13:01:59;;;;;;;;;;;0.00;95.70;;;;;;5033924;28;19991;-77
2022/12/14 13:04:30;;;;;;;;;;;0.10;95.70;;;;;;5037152;28;19996;-77
2022/12/14 13:07:01;;;;;;;;;;;0.00;95.70;;;;;;5040665;28;19976;-77
2022/12/14 13:09:33;;;;;;;;;;;0.10;95.70;;;;;;5037776;28;19986;-77
2022/12/14 13:12:00;;;;;;;;;;;0.00;95.70;;;;;;5039560;28;19984;-77
2022/12/14 13:14:29;;;;;;;;;;;0.10;95.70;;;;;;5040708;28;20053;-77
2022/12/14 13:16:58;;;;;;;;;;;0.10;95.70;;;;;;5034782;28;20535;-77
2022/12/14 13:19:29;;;;;;;;;;;0.10;95.70;;;;;;5036079;28;20002;-77
2022/12/14 13:21:57;;;;;;;;;;;0.10;95.70;;;;;;5037758;28;19976;-77
2022/12/14 13:24:24;;;;;;;;;;;0.10;95.70;;;;;;5037174;28;20514;-77
2022/12/14 13:26:58;;;;;;;;;;;0.10;95.70;;;;;;5036037;28;19979;-76
2022/12/14 13:29:37;;;;;;;;;;;0.10;95.70;;;;;;5036874;28;19986;-78
2022/12/14 13:32:08;;;;;;;;;;;0.10;95.70;;;;;;5035103;28;19992;-77
2022/12/14 13:34:42;;;;;;;;;;;0.10;95.70;;;;;;5039260;28;20640;-77
2022/12/14 13:37:21;;;;;;;;;;;0.10;95.70;;;;;;5046097;28;19975;-77
2022/12/14 13:40:01;;;;;;;;;;;0.10;95.70;;;;;;5039658;28;19975;-77
2022/12/14 13:42:31;;;;;;;;;;;0.10;95.70;;;;;;5032657;28;19983;-77
2022/12/14 13:44:59;;;;;;;;;;;0.10;95.60;;;;;;5034524;28;20022;-77
2022/12/14 13:47:28;;;;;;;;;;;0.10;95.70;;;;;;5038065;28;20003;-77
2022/12/14 13:49:56;;;;;;;;;;;0.10;95.70;;;;;;5035753;28;20023;-77
2022/12/14 13:52:29;;;;;;;;;;;0.20;95.80;;;;;;5035105;28;19990;-77
2022/12/14 13:54:55;;;;;;;;;;;0.10;95.70;;;;;;5037412;28;20438;-77
2022/12/14 13:57:23;;;;;;;;;;;0.20;95.70;;;;;;5039060;28;19990;-77
2022/12/14 13:59:50;;;;;;;;;;;0.20;95.70;;;;;;5035158;28;20454;-78
2022/12/14 14:02:37;;;;;;;;;;;0.20;95.80;;;;;;5033944;28;19992;-77
2022/12/14 14:05:19;;;;;;;;;;;0.20;95.80;;;;;;5037900;28;19976;-77
2022/12/14 14:07:52;;;;;;;;;;;0.20;95.80;;;;;;5039394;28;20005;-77
2022/12/14 14:10:29;;;;;;;;;;;0.20;95.80;;;;;;5039690;28;20074;-77
2022/12/14 14:12:55;;;;;;;;;;;0.20;95.80;;;;;;5041798;28;20174;-77
2022/12/14 14:15:37;;;;;;;;;;;0.20;95.80;;;;;;5038874;28;19984;-78
2022/12/14 14:18:13;;;;;;;;;;;0.20;95.90;;;;;;5042227;28;19987;-77
2022/12/14 14:20:40;;;;;;;;;;;0.20;95.90;;;;;;5040040;28;20065;-77
2022/12/14 14:23:25;;;;;;;;;;;0.20;95.90;;;;;;5038270;28;20003;-77
2022/12/14 14:26:09;;;;;;;;;;;0.20;95.80;;;;;;5042360;28;19979;-77
2022/12/14 14:28:36;;;;;;;;;;;0.20;95.90;;;;;;5039060;28;20023;-77
2022/12/14 14:31:03;;;;;;;;;;;0.20;96.00;;;;;;5040620;28;20581;-77
2022/12/14 14:33:33;;;;;;;;;;;0.20;96.00;;;;;;5036678;28;20014;-77
2022/12/14 14:36:07;;;;;;;;;;;0.20;96.00;;;;;;5042407;28;19983;-77
2022/12/14 14:38:36;;;;;;;;;;;0.20;96.00;;;;;;5040791;28;20422;-77
2022/12/14 14:41:09;;;;;;;;;;;0.20;96.00;;;;;;5036727;28;20066;-76
2022/12/14 14:43:37;;;;;;;;;;;0.20;96.00;;;;;;5041700;28;20006;-77
2022/12/14 14:46:05;;;;;;;;;;;0.20;96.00;;;;;;5041284;28;19991;-77
2022/12/14 14:48:33;;;;;;;;;;;0.20;96.00;;;;;;5040527;28;19979;-77
2022/12/14 14:51:04;;;;;;;;;;;0.20;96.00;;;;;;5037806;28;20081;-77